createdAt,value
2022-09-20T00:00:43.693Z,11.61
2022-09-20T00:02:45.281Z,11.59
2022-09-20T00:04:49.610Z,11.56
2022-09-20T00:06:51.435Z,11.47
2022-09-20T00:08:53.483Z,11.48
2022-09-20T00:11:06.317Z,11.51
2022-09-20T00:13:11.273Z,11.45
2022-09-20T00:15:12.812Z,11.44
2022-09-20T00:17:14.716Z,11.44
2022-09-20T00:19:21.163Z,11.57
2022-09-20T00:21:27.866Z,11.60
2022-09-20T00:23:30.335Z,11.54
2022-09-20T00:25:32.077Z,11.36
2022-09-20T00:27:33.710Z,11.35
2022-09-20T00:29:35.354Z,11.28
2022-09-20T00:31:39.182Z,11.35
2022-09-20T00:33:59.128Z,11.35
2022-09-20T00:36:00.855Z,11.34
2022-09-20T00:38:02.472Z,11.30
2022-09-20T00:40:05.758Z,11.38
2022-09-20T00:42:09.832Z,11.33
2022-09-20T00:44:48.129Z,11.35
2022-09-20T00:46:49.830Z,11.32
2022-09-20T00:48:53.391Z,11.34
2022-09-20T00:51:00.124Z,11.33
2022-09-20T00:53:26.508Z,11.23
2022-09-20T00:55:29.174Z,11.18
2022-09-20T00:57:35.309Z,11.16
2022-09-20T00:59:40.567Z,11.12
2022-09-20T01:01:44.192Z,11.14
2022-09-20T01:03:46.505Z,11.15
2022-09-20T01:05:48.169Z,11.20
2022-09-20T01:07:50.617Z,11.12
2022-09-20T01:09:52.450Z,11.16
2022-09-20T01:11:55.920Z,11.10
2022-09-20T01:13:57.881Z,11.10
2022-09-20T01:16:01.381Z,11.12
2022-09-20T01:18:06.571Z,11.11
2022-09-20T01:20:09.972Z,11.12
2022-09-20T01:22:21.770Z,11.09
2022-09-20T01:24:28.482Z,11.07
2022-09-20T01:26:47.392Z,11.20
2022-09-20T01:28:50.759Z,11.30
2022-09-20T01:31:46.873Z,11.29
2022-09-20T01:33:59.167Z,11.28
2022-09-20T01:36:04.101Z,11.26
2022-09-20T01:38:34.146Z,11.20
2022-09-20T01:41:19.490Z,11.17
2022-09-20T01:43:39.794Z,11.20
2022-09-20T01:45:46.887Z,11.19
2022-09-20T01:47:57.689Z,11.19
2022-09-20T01:50:28.400Z,11.14
2022-09-20T01:52:36.396Z,11.16
2022-09-20T01:54:49.513Z,10.99
2022-09-20T01:57:09.230Z,10.98
2022-09-20T01:59:24.843Z,10.87
2022-09-20T02:01:32.657Z,10.88
2022-09-20T02:03:37.332Z,10.99
2022-09-20T02:05:48.097Z,10.94
2022-09-20T02:08:08.344Z,10.89
2022-09-20T02:10:20.262Z,10.85
2022-09-20T02:12:43.462Z,10.86
2022-09-20T02:15:03.801Z,10.93
2022-09-20T02:17:13.959Z,10.88
2022-09-20T02:19:28.131Z,10.83
2022-09-20T02:21:48.223Z,10.88
2022-09-20T02:24:15.052Z,10.77
2022-09-20T02:26:33.870Z,10.62
2022-09-20T02:29:01.391Z,10.50
2022-09-20T02:31:17.019Z,10.36
2022-09-20T02:33:36.674Z,10.40
2022-09-20T02:36:07.965Z,10.42
2022-09-20T02:38:18.669Z,10.41
2022-09-20T02:40:41.547Z,10.43
2022-09-20T02:43:04.752Z,10.32
2022-09-20T02:45:06.272Z,10.29
2022-09-20T02:47:37.651Z,10.21
2022-09-20T02:50:14.601Z,10.03
2022-09-20T02:52:40.452Z,9.97
2022-09-20T02:55:01.655Z,10.00
2022-09-20T02:57:06.359Z,9.98
2022-09-20T02:59:37.668Z,10.04
2022-09-20T03:01:49.186Z,10.05
2022-09-20T03:03:56.868Z,9.94
2022-09-20T03:06:06.420Z,9.99
2022-09-20T03:08:43.455Z,10.04
2022-09-20T03:11:22.102Z,9.91
2022-09-20T03:13:52.964Z,9.92
2022-09-20T03:16:14.941Z,9.91
2022-09-20T03:18:20.064Z,9.87
2022-09-20T03:20:36.034Z,9.88
2022-09-20T03:22:37.620Z,9.92
2022-09-20T03:24:54.415Z,10.01
2022-09-20T03:26:58.867Z,9.95
2022-09-20T03:29:00.499Z,9.98
2022-09-20T03:31:11.984Z,9.87
2022-09-20T03:33:44.214Z,9.87
2022-09-20T03:36:11.799Z,9.84
2022-09-20T03:38:29.830Z,9.96
2022-09-20T03:40:59.348Z,10.03
2022-09-20T03:43:11.405Z,10.07
2022-09-20T03:45:50.767Z,9.96
2022-09-20T03:48:09.364Z,9.96
2022-09-20T03:50:35.934Z,9.99
2022-09-20T03:53:00.203Z,10.02
2022-09-20T03:55:16.387Z,10.03
2022-09-20T03:57:36.665Z,10.03
2022-09-20T03:59:51.584Z,10.09
2022-09-20T04:01:56.741Z,10.05
2022-09-20T04:04:32.595Z,10.11
2022-09-20T04:06:43.160Z,10.08
2022-09-20T04:09:09.234Z,10.17
2022-09-20T04:11:30.093Z,10.21
2022-09-20T04:13:45.537Z,10.25
2022-09-20T04:16:19.343Z,10.17
2022-09-20T04:18:20.899Z,10.20
2022-09-20T04:20:40.447Z,10.27
2022-09-20T04:22:43.422Z,10.29
2022-09-20T04:24:53.175Z,10.31
2022-09-20T04:27:25.940Z,10.34
2022-09-20T04:29:34.193Z,10.41
2022-09-20T04:31:41.462Z,10.42
2022-09-20T04:33:45.658Z,10.42
2022-09-20T04:36:31.673Z,10.44
2022-09-20T04:38:35.701Z,10.34
2022-09-20T04:40:47.518Z,10.44
2022-09-20T04:43:07.687Z,10.53
2022-09-20T04:45:13.567Z,10.63
2022-09-20T04:47:36.886Z,10.69
2022-09-20T04:50:11.593Z,10.67
2022-09-20T04:52:49.939Z,10.66
2022-09-20T04:55:12.889Z,10.74
2022-09-20T04:57:39.888Z,10.88
2022-09-20T05:00:07.389Z,10.98
2022-09-20T05:02:21.256Z,11.01
2022-09-20T05:04:28.560Z,11.05
2022-09-20T05:06:48.513Z,11.00
2022-09-20T05:09:06.881Z,10.95
2022-09-20T05:11:30.650Z,11.01
2022-09-20T05:14:12.837Z,11.07
2022-09-20T05:16:44.157Z,11.17
2022-09-20T05:19:13.653Z,11.25
2022-09-20T05:21:38.132Z,11.32
2022-09-20T05:24:08.370Z,11.30
2022-09-20T05:26:22.787Z,11.30
2022-09-20T05:28:24.387Z,11.36
2022-09-20T05:30:35.315Z,11.27
2022-09-20T05:32:39.563Z,11.28
2022-09-20T05:35:00.292Z,11.38
2022-09-20T05:37:28.998Z,11.37
2022-09-20T05:39:45.973Z,11.42
2022-09-20T05:42:01.012Z,10.98
2022-09-20T05:44:31.225Z,11.00
2022-09-20T05:46:45.513Z,11.01
2022-09-20T05:48:55.321Z,11.25
2022-09-20T05:51:09.333Z,11.41
2022-09-20T05:53:22.660Z,11.33
2022-09-20T05:55:54.813Z,11.43
2022-09-20T05:58:24.968Z,11.57
2022-09-20T06:00:31.055Z,11.63
2022-09-20T06:02:41.791Z,11.64
2022-09-20T06:04:52.863Z,11.65
2022-09-20T06:07:03.869Z,11.70
2022-09-20T06:09:17.040Z,11.77
2022-09-20T06:11:30.738Z,11.78
2022-09-20T06:14:10.241Z,11.75
2022-09-20T06:16:25.457Z,11.89
2022-09-20T06:18:31.960Z,11.67
2022-09-20T06:20:39.481Z,11.70
2022-09-20T06:22:52.569Z,11.83
2022-09-20T06:25:09.275Z,11.97
2022-09-20T06:27:19.318Z,12.06
2022-09-20T06:29:35.546Z,11.92
2022-09-20T06:31:38.165Z,11.94
2022-09-20T06:33:55.691Z,11.72
2022-09-20T06:36:32.707Z,11.34
2022-09-20T06:38:58.739Z,11.70
2022-09-20T06:41:18.767Z,11.87
2022-09-20T06:43:20.426Z,11.74
2022-09-20T06:45:22.036Z,11.97
2022-09-20T06:47:23.652Z,12.00
2022-09-20T06:49:27.376Z,11.93
2022-09-20T06:51:34.318Z,11.93
2022-09-20T06:53:40.323Z,11.95
2022-09-20T06:55:43.283Z,12.07
2022-09-20T06:57:45.901Z,12.13
2022-09-20T06:59:47.483Z,12.19
2022-09-20T07:01:49.529Z,12.23
2022-09-20T07:03:51.279Z,12.28
2022-09-20T07:05:53.029Z,12.36
2022-09-20T07:07:58.754Z,12.49
2022-09-20T07:10:00.322Z,12.67
2022-09-20T07:12:02.073Z,12.71
2022-09-20T07:14:03.829Z,12.48
2022-09-20T07:16:09.336Z,12.50
2022-09-20T07:18:10.988Z,12.49
2022-09-20T07:20:15.067Z,12.60
2022-09-20T07:22:18.581Z,12.69
2022-09-20T07:24:20.194Z,12.80
2022-09-20T07:26:26.814Z,12.73
2022-09-20T07:28:29.250Z,12.73
2022-09-20T07:30:30.987Z,12.92
2022-09-20T07:32:33.105Z,13.03
2022-09-20T07:34:34.738Z,13.17
2022-09-20T07:36:37.109Z,13.27
2022-09-20T07:38:39.975Z,12.80
2022-09-20T07:40:42.007Z,13.04
2022-09-20T07:42:46.021Z,13.06
2022-09-20T07:44:47.776Z,13.10
2022-09-20T07:46:52.770Z,13.15
2022-09-20T07:48:54.546Z,13.18
2022-09-20T07:50:59.091Z,13.35
2022-09-20T07:53:01.044Z,13.49
2022-09-20T07:55:02.760Z,13.17
2022-09-20T07:57:05.740Z,13.21
2022-09-20T07:59:07.434Z,13.43
2022-09-20T08:01:12.613Z,12.98
2022-09-20T08:03:14.356Z,13.30
2022-09-20T08:05:16.235Z,13.56
2022-09-20T08:07:18.844Z,13.70
2022-09-20T08:09:20.492Z,13.83
2022-09-20T08:11:27.748Z,13.32
2022-09-20T08:15:51.741Z,14.11
2022-09-20T08:17:53.339Z,14.50
2022-09-20T08:19:55.290Z,14.65
2022-09-20T08:21:57.065Z,14.46
2022-09-20T08:23:59.507Z,13.65
2022-09-20T08:26:02.496Z,13.93
2022-09-20T08:28:04.117Z,13.84
2022-09-20T08:30:06.465Z,13.79
2022-09-20T08:32:08.389Z,13.50
2022-09-20T08:34:12.417Z,12.95
2022-09-20T08:36:16.148Z,13.13
2022-09-20T08:40:39.568Z,13.49
2022-09-20T08:42:44.787Z,13.62
2022-09-20T08:45:00.698Z,13.78
2022-09-20T08:47:21.857Z,13.81
2022-09-20T08:49:26.702Z,13.93
2022-09-20T08:51:32.381Z,14.38
2022-09-20T08:53:34.252Z,14.75
2022-09-20T08:55:39.569Z,14.83
2022-09-20T08:57:41.209Z,15.02
2022-09-20T08:59:43.254Z,15.00
2022-09-20T09:01:45.644Z,15.07
2022-09-20T09:03:47.691Z,15.09
2022-09-20T09:05:53.940Z,15.05
2022-09-20T09:07:55.661Z,15.20
2022-09-20T09:09:57.263Z,15.25
2022-09-20T09:11:58.921Z,14.85
2022-09-20T09:14:30.027Z,14.68
2022-09-20T09:16:35.381Z,14.25
2022-09-20T09:18:40.696Z,14.62
2022-09-20T09:20:46.839Z,13.87
2022-09-20T09:23:09.107Z,13.27
2022-09-20T09:25:38.342Z,13.28
2022-09-20T09:27:55.245Z,13.23
2022-09-20T09:29:56.891Z,13.27
2022-09-20T09:32:19.223Z,13.27
2022-09-20T09:34:35.317Z,13.23
2022-09-20T09:36:43.989Z,13.34
2022-09-20T09:38:46.419Z,13.66
2022-09-20T09:41:02.366Z,13.80
2022-09-20T09:43:04.413Z,13.82
2022-09-20T09:45:13.944Z,13.72
2022-09-20T09:47:37.564Z,13.47
2022-09-20T09:50:00.149Z,13.55
2022-09-20T09:52:15.780Z,13.87
2022-09-20T09:54:19.917Z,14.19
2022-09-20T09:56:43.268Z,14.56
2022-09-20T09:58:54.923Z,14.89
2022-09-20T10:00:59.894Z,15.38
2022-09-20T10:03:20.017Z,15.45
2022-09-20T10:05:27.471Z,15.61
2022-09-20T10:08:03.231Z,15.94
2022-09-20T10:10:16.772Z,15.99
2022-09-20T10:12:31.048Z,16.18
2022-09-20T10:14:44.538Z,16.22
2022-09-20T10:17:05.041Z,16.19
2022-09-20T10:19:32.122Z,16.21
2022-09-20T10:21:43.852Z,16.24
2022-09-20T10:24:05.170Z,16.17
2022-09-20T10:26:27.106Z,16.40
2022-09-20T10:28:48.575Z,16.59
2022-09-20T10:31:11.732Z,16.65
2022-09-20T10:33:22.994Z,16.68
2022-09-20T10:35:29.159Z,16.56
2022-09-20T10:37:33.765Z,16.37
2022-09-20T10:39:37.572Z,16.25
2022-09-20T10:42:14.983Z,15.37
2022-09-20T10:44:19.340Z,15.92
2022-09-20T10:46:54.799Z,15.93
2022-09-20T10:49:24.094Z,15.89
2022-09-20T10:51:39.134Z,16.07
2022-09-20T10:54:02.585Z,15.66
2022-09-20T10:56:35.260Z,15.44
2022-09-20T10:58:54.285Z,15.66
2022-09-20T11:01:37.270Z,15.95
2022-09-20T11:03:54.008Z,15.96
2022-09-20T11:06:01.323Z,16.07
2022-09-20T11:08:19.131Z,16.17
2022-09-20T11:10:45.108Z,16.24
2022-09-20T11:12:52.024Z,15.97
2022-09-20T11:15:21.821Z,15.77
2022-09-20T11:17:31.945Z,15.90
2022-09-20T11:20:20.750Z,15.45
2022-09-20T11:22:44.079Z,15.27
2022-09-20T11:24:57.978Z,15.71
2022-09-20T11:27:06.916Z,16.20
2022-09-20T11:29:14.604Z,16.38
2022-09-20T11:31:24.859Z,15.89
2022-09-20T11:33:36.002Z,15.70
2022-09-20T11:35:44.376Z,15.84
2022-09-20T11:37:52.267Z,15.73
2022-09-20T11:39:55.031Z,15.82
2022-09-20T11:41:59.963Z,16.05
2022-09-20T11:44:13.590Z,15.73
2022-09-20T11:46:23.413Z,15.37
2022-09-20T11:48:31.971Z,15.05
2022-09-20T11:50:46.459Z,15.21
2022-09-20T11:53:21.102Z,15.62
2022-09-20T11:55:37.821Z,15.83
2022-09-20T11:57:39.783Z,15.92
2022-09-20T11:59:43.114Z,16.04
2022-09-20T12:01:45.924Z,15.41
2022-09-20T12:04:00.121Z,15.06
2022-09-20T12:06:27.455Z,15.44
2022-09-20T12:08:40.937Z,15.94
2022-09-20T12:10:42.862Z,15.77
2022-09-20T12:12:47.074Z,15.96
2022-09-20T12:14:56.553Z,15.50
2022-09-20T12:16:58.335Z,15.64
2022-09-20T12:18:59.892Z,15.66
2022-09-20T12:21:03.106Z,15.74
2022-09-20T12:23:38.827Z,15.71
2022-09-20T12:25:40.461Z,15.97
2022-09-20T12:27:42.215Z,15.79
2022-09-20T12:29:47.639Z,15.90
2022-09-20T12:31:54.799Z,16.18
2022-09-20T12:34:11.968Z,15.89
2022-09-20T12:36:16.882Z,15.88
2022-09-20T12:38:21.449Z,15.70
2022-09-20T12:40:26.289Z,15.23
2022-09-20T12:42:31.412Z,15.22
2022-09-20T12:44:35.373Z,15.34
2022-09-20T12:46:41.606Z,15.56
2022-09-20T12:48:43.202Z,15.22
2022-09-20T12:51:30.903Z,15.11
2022-09-20T12:53:32.580Z,15.28
2022-09-20T12:55:40.907Z,15.34
2022-09-20T12:57:42.972Z,15.26
2022-09-20T12:59:44.950Z,15.22
2022-09-20T13:01:46.985Z,15.43
2022-09-20T13:03:50.137Z,15.70
2022-09-20T13:06:15.690Z,15.97
2022-09-20T13:08:23.984Z,15.79
2022-09-20T13:10:29.304Z,15.89
2022-09-20T13:12:32.190Z,15.66
2022-09-20T13:14:34.914Z,15.89
2022-09-20T13:16:40.495Z,15.79
2022-09-20T13:18:42.343Z,15.73
2022-09-20T13:20:44.403Z,15.64
2022-09-20T13:22:46.158Z,15.49
2022-09-20T13:24:50.255Z,15.09
2022-09-20T13:26:53.917Z,15.14
2022-09-20T13:28:59.215Z,15.51
2022-09-20T13:31:21.658Z,15.73
2022-09-20T13:33:25.159Z,15.71
2022-09-20T13:35:32.437Z,15.73
2022-09-20T13:37:34.916Z,15.76
2022-09-20T13:39:37.334Z,15.56
2022-09-20T13:41:39.434Z,15.53
2022-09-20T13:43:43.578Z,15.46
2022-09-20T13:45:46.871Z,15.66
2022-09-20T13:47:51.518Z,15.17
2022-09-20T13:49:53.622Z,14.91
2022-09-20T13:51:55.403Z,15.18
2022-09-20T13:54:18.322Z,15.54
2022-09-20T13:56:23.607Z,15.41
2022-09-20T13:58:31.524Z,15.26
2022-09-20T14:00:34.856Z,15.28
2022-09-20T14:02:37.097Z,15.17
2022-09-20T14:04:38.913Z,15.27
2022-09-20T14:06:40.748Z,15.34
2022-09-20T14:08:45.192Z,15.34
2022-09-20T14:10:47.121Z,15.62
2022-09-20T14:12:49.266Z,15.49
2022-09-20T14:14:51.344Z,15.70
2022-09-20T14:16:55.000Z,15.95
2022-09-20T14:18:58.576Z,16.19
2022-09-20T14:21:00.679Z,16.18
2022-09-20T14:23:02.343Z,16.18
2022-09-20T14:25:21.195Z,15.88
2022-09-20T14:27:23.165Z,15.63
2022-09-20T14:29:43.780Z,15.47
2022-09-20T14:31:47.239Z,15.80
2022-09-20T14:33:55.111Z,16.15
2022-09-20T14:35:58.158Z,16.25
2022-09-20T14:38:02.304Z,16.47
2022-09-20T14:40:19.693Z,16.58
2022-09-20T14:42:27.152Z,16.14
2022-09-20T14:44:32.485Z,15.75
2022-09-20T14:46:38.821Z,15.42
2022-09-20T14:48:41.450Z,15.27
2022-09-20T14:50:45.786Z,15.28
2022-09-20T14:52:47.375Z,15.64
2022-09-20T14:54:59.797Z,15.95
2022-09-20T14:57:01.667Z,16.20
2022-09-20T14:59:13.868Z,16.26
2022-09-20T15:01:26.031Z,15.97
2022-09-20T15:03:31.083Z,16.07
2022-09-20T15:05:33.904Z,15.74
2022-09-20T15:07:37.243Z,15.40
2022-09-20T15:09:39.144Z,15.60
2022-09-20T15:11:41.088Z,15.96
2022-09-20T15:13:43.141Z,16.31
2022-09-20T15:15:48.554Z,16.53
2022-09-20T15:17:50.467Z,16.20
2022-09-20T15:19:52.269Z,15.75
2022-09-20T15:21:54.196Z,16.02
2022-09-20T15:23:55.863Z,16.35
2022-09-20T15:25:57.515Z,16.50
2022-09-20T15:27:59.731Z,16.72
2022-09-20T15:30:01.280Z,17.06
2022-09-20T15:32:04.514Z,17.31
2022-09-20T15:34:07.392Z,16.66
2022-09-20T15:36:10.322Z,16.71
2022-09-20T15:38:12.890Z,16.92
2022-09-20T15:40:15.305Z,16.95
2022-09-20T15:42:17.019Z,17.07
2022-09-20T15:44:20.814Z,17.31
2022-09-20T15:46:24.569Z,17.98
2022-09-20T15:48:28.350Z,17.89
2022-09-20T15:50:30.255Z,17.57
2022-09-20T15:52:34.496Z,17.42
2022-09-20T15:54:36.306Z,17.28
2022-09-20T15:56:40.691Z,17.35
2022-09-20T15:58:48.689Z,17.36
2022-09-20T16:00:50.326Z,17.09
2022-09-20T16:02:51.983Z,17.11
2022-09-20T16:04:57.824Z,17.05
2022-09-20T16:06:59.401Z,16.98
2022-09-20T16:09:00.981Z,16.83
2022-09-20T16:11:03.360Z,16.89
2022-09-20T16:13:04.998Z,16.91
2022-09-20T16:15:07.323Z,16.75
2022-09-20T16:17:08.897Z,16.45
2022-09-20T16:19:25.156Z,16.18
2022-09-20T16:21:26.849Z,16.00
2022-09-20T16:23:28.494Z,15.80
2022-09-20T16:25:30.132Z,15.62
2022-09-20T16:27:34.280Z,15.55
2022-09-20T16:29:36.325Z,15.40
2022-09-20T16:31:43.040Z,15.19
2022-09-20T16:33:44.738Z,15.12
2022-09-20T16:35:46.314Z,15.15
2022-09-20T16:37:48.284Z,15.17
2022-09-20T16:39:49.877Z,15.07
2022-09-20T16:41:52.951Z,15.06
2022-09-20T16:43:54.924Z,15.03
2022-09-20T16:46:00.662Z,14.99
2022-09-20T16:48:08.291Z,14.94
2022-09-20T16:50:11.988Z,14.92
2022-09-20T16:52:13.813Z,14.87
2022-09-20T16:54:16.747Z,14.81
2022-09-20T16:56:21.667Z,14.83
2022-09-20T16:58:30.501Z,14.80
2022-09-20T17:00:33.748Z,14.78
2022-09-20T17:02:36.399Z,14.75
2022-09-20T17:04:38.042Z,14.69
2022-09-20T17:06:40.277Z,14.63
2022-09-20T17:08:43.008Z,14.64
2022-09-20T17:10:45.341Z,14.59
2022-09-20T17:12:47.950Z,14.56
2022-09-20T17:14:49.808Z,14.53
2022-09-20T17:16:51.510Z,14.52
2022-09-20T17:19:07.356Z,14.46
2022-09-20T17:21:18.537Z,14.44
2022-09-20T17:23:20.836Z,14.48
2022-09-20T17:25:22.584Z,14.50
2022-09-20T17:27:24.518Z,14.46
2022-09-20T17:29:26.182Z,14.49
2022-09-20T17:31:34.184Z,14.51
2022-09-20T17:33:36.705Z,14.49
2022-09-20T17:35:38.489Z,14.46
2022-09-20T17:37:41.064Z,14.45
2022-09-20T17:39:42.636Z,14.33
2022-09-20T17:41:47.171Z,14.30
2022-09-20T17:43:53.025Z,14.31
2022-09-20T17:45:55.821Z,14.33
2022-09-20T17:47:58.688Z,14.31
2022-09-20T17:50:01.358Z,14.32
2022-09-20T17:52:04.524Z,14.27
2022-09-20T17:54:08.076Z,14.22
2022-09-20T17:56:11.871Z,14.14
2022-09-20T17:58:13.602Z,14.08
2022-09-20T18:00:16.584Z,13.99
2022-09-20T18:02:18.524Z,13.99
2022-09-20T18:04:21.438Z,13.95
2022-09-20T18:06:28.999Z,13.82
2022-09-20T18:08:30.730Z,13.80
2022-09-20T18:10:32.914Z,13.75
2022-09-20T18:12:34.995Z,13.76
2022-09-20T18:14:37.138Z,13.74
2022-09-20T18:16:39.837Z,13.74
2022-09-20T18:18:43.932Z,13.71
2022-09-20T18:20:46.483Z,13.70
2022-09-20T18:22:49.043Z,13.74
2022-09-20T18:24:51.016Z,13.73
2022-09-20T18:26:52.785Z,13.75
2022-09-20T18:29:02.476Z,13.69
2022-09-20T18:31:05.535Z,13.70
2022-09-20T18:33:08.459Z,13.69
2022-09-20T18:35:10.699Z,13.70
2022-09-20T18:37:14.838Z,13.70
2022-09-20T18:39:16.850Z,13.69
2022-09-20T18:41:18.604Z,13.68
2022-09-20T18:43:20.999Z,13.67
2022-09-20T18:45:23.594Z,13.67
2022-09-20T18:47:25.915Z,13.65
2022-09-20T18:49:29.647Z,13.64
2022-09-20T18:51:38.576Z,13.63
2022-09-20T18:53:41.173Z,13.50
2022-09-20T18:55:44.131Z,13.50
2022-09-20T18:57:46.488Z,13.48
2022-09-20T18:59:54.442Z,13.54
2022-09-20T19:02:17.805Z,13.52
2022-09-20T19:04:47.730Z,13.55
2022-09-20T19:07:04.877Z,13.55
2022-09-20T19:09:15.195Z,13.52
2022-09-20T19:11:32.004Z,13.42
2022-09-20T19:14:15.135Z,13.42
2022-09-20T19:16:21.173Z,13.41
2022-09-20T19:19:02.005Z,13.40
2022-09-20T19:21:41.481Z,13.32
2022-09-20T19:24:03.506Z,13.37
2022-09-20T19:26:19.008Z,13.39
2022-09-20T19:28:21.141Z,13.37
2022-09-20T19:30:23.635Z,13.35
2022-09-20T19:32:27.422Z,13.30
2022-09-20T19:34:30.258Z,13.18
2022-09-20T19:36:39.856Z,13.17
2022-09-20T19:39:18.676Z,13.10
2022-09-20T19:41:41.899Z,13.12
2022-09-20T19:43:47.340Z,13.00
2022-09-20T19:45:56.759Z,12.96
2022-09-20T19:48:16.533Z,13.02
2022-09-20T19:50:44.524Z,12.97
2022-09-20T19:52:46.395Z,12.57
2022-09-20T19:54:51.860Z,12.08
2022-09-20T19:56:55.734Z,12.04
2022-09-20T19:58:57.757Z,12.13
2022-09-20T20:00:59.617Z,12.27
2022-09-20T20:03:01.563Z,12.40
2022-09-20T20:05:04.185Z,12.47
2022-09-20T20:07:22.366Z,12.61
2022-09-20T20:09:45.305Z,12.65
2022-09-20T20:12:05.887Z,12.73
2022-09-20T20:14:12.982Z,12.74
2022-09-20T20:16:16.244Z,12.80
2022-09-20T20:18:32.446Z,12.85
2022-09-20T20:20:45.846Z,12.90
2022-09-20T20:23:22.274Z,12.93
2022-09-20T20:25:42.165Z,12.91
2022-09-20T20:27:43.731Z,12.95
2022-09-20T20:29:45.506Z,12.93
2022-09-20T20:31:47.206Z,12.91
2022-09-20T20:33:49.028Z,12.91
2022-09-20T20:35:55.761Z,12.90
2022-09-20T20:38:36.940Z,12.86
2022-09-20T20:40:39.206Z,12.82
2022-09-20T20:42:42.364Z,12.85
2022-09-20T20:44:43.940Z,12.82
2022-09-20T20:46:47.585Z,12.80
2022-09-20T20:48:49.574Z,12.78
2022-09-20T20:51:04.554Z,12.79
2022-09-20T20:53:06.688Z,12.81
2022-09-20T20:55:08.687Z,12.80
2022-09-20T20:57:10.257Z,12.78
2022-09-20T20:59:11.930Z,12.77
2022-09-20T21:01:13.650Z,12.69
2022-09-20T21:03:15.264Z,12.57
2022-09-20T21:05:16.932Z,12.51
2022-09-20T21:07:18.577Z,12.50
2022-09-20T21:09:20.412Z,12.47
2022-09-20T21:11:24.464Z,12.48
2022-09-20T21:13:26.097Z,12.45
2022-09-20T21:15:28.040Z,12.44
2022-09-20T21:17:33.907Z,12.37
2022-09-20T21:19:37.509Z,12.32
2022-09-20T21:21:40.183Z,12.26
2022-09-20T21:23:41.884Z,12.31
2022-09-20T21:25:43.723Z,12.24
2022-09-20T21:27:45.316Z,12.28
2022-09-20T21:29:46.957Z,12.22
2022-09-20T21:31:48.797Z,12.20
2022-09-20T21:33:50.443Z,12.15
2022-09-20T21:35:52.367Z,12.07
2022-09-20T21:37:53.980Z,12.03
2022-09-20T21:39:55.548Z,11.98
2022-09-20T21:41:57.515Z,11.96
2022-09-20T21:44:00.642Z,11.93
2022-09-20T21:46:02.545Z,11.99
2022-09-20T21:48:05.399Z,11.97
2022-09-20T21:50:07.616Z,11.95
2022-09-20T21:52:10.970Z,11.90
2022-09-20T21:54:12.611Z,11.90
2022-09-20T21:56:17.584Z,11.85
2022-09-20T21:58:19.216Z,11.86
2022-09-20T22:00:20.892Z,11.83
2022-09-20T22:02:23.385Z,11.83
2022-09-20T22:04:25.547Z,11.84
2022-09-20T22:06:32.487Z,11.91
2022-09-20T22:08:34.312Z,11.86
2022-09-20T22:10:37.025Z,11.86
2022-09-20T22:12:38.831Z,11.79
2022-09-20T22:14:40.506Z,11.79
2022-09-20T22:16:43.727Z,11.83
2022-09-20T22:18:46.979Z,11.83
2022-09-20T22:20:48.702Z,11.81
2022-09-20T22:22:50.385Z,11.77
2022-09-20T22:24:52.030Z,11.70
2022-09-20T22:26:54.031Z,11.71
2022-09-20T22:28:56.168Z,11.66
2022-09-20T22:31:03.374Z,11.63
2022-09-20T22:33:05.251Z,11.62
2022-09-20T22:35:07.126Z,11.64
2022-09-20T22:37:08.771Z,11.66
2022-09-20T22:39:11.365Z,11.68
2022-09-20T22:41:15.020Z,11.69
2022-09-20T22:43:16.672Z,11.70
2022-09-20T22:45:18.230Z,11.72
2022-09-20T22:47:19.840Z,11.68
2022-09-20T22:49:21.413Z,11.67
2022-09-20T22:51:25.403Z,11.66
2022-09-20T22:53:28.317Z,11.63
2022-09-20T22:55:31.379Z,11.60
2022-09-20T22:57:32.954Z,11.55
2022-09-20T22:59:34.766Z,11.53
2022-09-20T23:01:47.081Z,11.50
2022-09-20T23:03:54.101Z,11.48
2022-09-20T23:05:55.774Z,11.46
2022-09-20T23:07:57.321Z,11.50
2022-09-20T23:09:58.935Z,11.45
2022-09-20T23:12:00.655Z,11.48
2022-09-20T23:14:05.126Z,11.47
2022-09-20T23:16:11.340Z,11.45
2022-09-20T23:18:12.960Z,11.37
2022-09-20T23:20:14.753Z,11.41
2022-09-20T23:22:16.347Z,11.36
2022-09-20T23:24:17.992Z,11.31
2022-09-20T23:26:20.385Z,11.34
2022-09-20T23:28:28.257Z,11.36
2022-09-20T23:30:32.028Z,11.43
2022-09-20T23:32:33.553Z,11.47
2022-09-20T23:34:35.124Z,11.51
2022-09-20T23:36:39.174Z,11.51
2022-09-20T23:38:41.180Z,11.53
2022-09-20T23:40:42.744Z,11.56
2022-09-20T23:42:44.433Z,11.57
2022-09-20T23:44:46.285Z,11.55
2022-09-20T23:46:47.839Z,11.57
2022-09-20T23:48:51.015Z,11.56
2022-09-20T23:50:52.840Z,11.54
2022-09-20T23:52:54.432Z,11.51
2022-09-20T23:54:56.044Z,11.55
2022-09-20T23:56:57.652Z,11.52
2022-09-20T23:58:59.300Z,11.46
